createdAt,value
2022-10-01T00:01:08.103Z,64.80
2022-10-01T00:03:38.233Z,64.80
2022-10-01T00:06:12.929Z,64.70
2022-10-01T00:08:41.458Z,64.70
2022-10-01T00:11:16.043Z,64.70
2022-10-01T00:13:43.872Z,64.70
2022-10-01T00:16:13.969Z,64.80
2022-10-01T00:18:42.587Z,64.20
2022-10-01T00:21:11.978Z,64.70
2022-10-01T00:23:38.813Z,64.10
2022-10-01T00:26:17.003Z,64.60
2022-10-01T00:28:46.046Z,64.10
2022-10-01T00:31:14.341Z,64.60
2022-10-01T00:33:41.228Z,64.20
2022-10-01T00:36:09.687Z,64.70
2022-10-01T00:38:37.743Z,64.00
2022-10-01T00:41:05.049Z,64.50
2022-10-01T00:43:35.253Z,64.60
2022-10-01T00:46:09.538Z,64.60
2022-10-01T00:48:47.685Z,64.60
2022-10-01T00:51:14.838Z,64.70
2022-10-01T00:53:43.706Z,64.50
2022-10-01T00:56:10.489Z,64.50
2022-10-01T00:58:37.129Z,64.50
2022-10-01T01:01:04.227Z,64.00
2022-10-01T01:03:30.817Z,64.50
2022-10-01T01:05:57.379Z,63.90
2022-10-01T01:08:24.023Z,64.30
2022-10-01T01:11:08.105Z,64.50
2022-10-01T01:13:43.370Z,64.50
2022-10-01T01:16:20.805Z,63.90
2022-10-01T01:19:02.428Z,64.50
2022-10-01T01:21:42.441Z,64.40
2022-10-01T01:24:39.609Z,63.90
2022-10-01T01:27:25.112Z,63.80
2022-10-01T01:30:11.062Z,64.30
2022-10-01T01:33:05.850Z,64.30
2022-10-01T01:35:39.321Z,64.40
2022-10-01T01:38:11.192Z,64.40
2022-10-01T01:40:40.853Z,64.40
2022-10-01T01:43:15.742Z,64.30
2022-10-01T01:45:43.457Z,64.30
2022-10-01T01:48:12.866Z,64.40
2022-10-01T01:50:58.653Z,63.70
2022-10-01T01:55:53.728Z,63.70
2022-10-01T01:58:20.897Z,64.30
2022-10-01T02:00:52.290Z,63.80
2022-10-01T02:03:25.708Z,64.30
2022-10-01T02:06:03.644Z,63.70
2022-10-01T02:08:43.175Z,64.20
2022-10-01T02:11:18.776Z,64.30
2022-10-01T02:13:51.214Z,63.80
2022-10-01T02:16:26.436Z,64.30
2022-10-01T02:19:16.244Z,63.80
2022-10-01T02:22:05.452Z,64.20
2022-10-01T02:24:39.004Z,64.20
2022-10-01T02:27:13.442Z,63.70
2022-10-01T02:29:41.700Z,64.10
2022-10-01T02:32:10.176Z,63.70
2022-10-01T02:34:38.164Z,63.60
2022-10-01T02:37:07.727Z,63.70
2022-10-01T02:39:35.794Z,64.10
2022-10-01T02:42:05.385Z,63.60
2022-10-01T02:44:37.995Z,64.10
2022-10-01T02:47:18.645Z,63.60
2022-10-01T02:49:46.052Z,64.00
2022-10-01T02:52:41.472Z,63.70
2022-10-01T02:55:23.926Z,63.70
2022-10-01T02:57:50.545Z,64.10
2022-10-01T03:00:21.594Z,63.80
2022-10-01T03:02:49.490Z,64.10
2022-10-01T03:05:17.115Z,63.50
2022-10-01T03:07:44.170Z,64.00
2022-10-01T03:10:12.256Z,64.10
2022-10-01T03:12:42.772Z,64.00
2022-10-01T03:15:09.822Z,63.40
2022-10-01T03:17:37.159Z,63.50
2022-10-01T03:20:05.504Z,64.10
2022-10-01T03:22:33.269Z,63.40
2022-10-01T03:25:00.223Z,64.00
2022-10-01T03:27:26.839Z,64.00
2022-10-01T03:29:53.420Z,64.10
2022-10-01T03:32:20.405Z,64.00
2022-10-01T03:34:47.842Z,63.40
2022-10-01T03:37:14.428Z,64.00
2022-10-01T03:39:41.005Z,63.40
2022-10-01T03:42:07.567Z,64.00
2022-10-01T03:44:34.496Z,64.00
2022-10-01T03:47:01.065Z,64.00
2022-10-01T03:49:27.898Z,63.90
2022-10-01T03:51:54.764Z,63.50
2022-10-01T03:54:21.569Z,64.00
2022-10-01T03:56:48.836Z,63.40
2022-10-01T03:59:15.439Z,64.00
2022-10-01T04:01:42.145Z,63.90
2022-10-01T04:04:09.060Z,63.60
2022-10-01T04:06:35.822Z,64.10
2022-10-01T04:09:02.548Z,63.40
2022-10-01T04:11:30.037Z,63.90
2022-10-01T04:13:57.882Z,63.90
2022-10-01T04:16:25.157Z,63.30
2022-10-01T04:18:51.926Z,64.00
2022-10-01T04:21:18.501Z,63.80
2022-10-01T04:23:45.170Z,63.90
2022-10-01T04:26:11.783Z,63.60
2022-10-01T04:28:38.433Z,63.90
2022-10-01T04:31:23.601Z,63.80
2022-10-01T04:33:51.233Z,63.80
2022-10-01T04:36:17.851Z,63.70
2022-10-01T04:38:44.449Z,63.90
2022-10-01T04:41:11.106Z,63.80
2022-10-01T04:43:37.700Z,63.60
2022-10-01T04:46:04.307Z,63.30
2022-10-01T04:48:30.865Z,65.30
2022-10-01T04:50:57.408Z,67.10
2022-10-01T04:53:24.215Z,63.80
2022-10-01T04:55:50.869Z,63.20
2022-10-01T04:58:18.599Z,65.90
2022-10-01T05:00:45.337Z,67.70
2022-10-01T05:03:12.076Z,66.40
2022-10-01T05:05:38.862Z,67.60
2022-10-01T05:08:05.446Z,65.90
2022-10-01T05:10:32.242Z,66.00
2022-10-01T05:13:01.103Z,67.20
2022-10-01T05:15:28.837Z,66.20
2022-10-01T05:17:55.733Z,66.80
2022-10-01T05:20:25.956Z,67.60
2022-10-01T05:22:54.189Z,63.00
2022-10-01T05:25:21.033Z,69.20
2022-10-01T05:27:47.716Z,68.60
2022-10-01T05:30:24.013Z,68.70
2022-10-01T05:32:55.808Z,68.40
2022-10-01T05:37:53.268Z,68.70
2022-10-01T05:40:19.910Z,68.40
2022-10-01T05:42:47.197Z,68.70
2022-10-01T05:45:13.910Z,63.10
2022-10-01T05:47:43.645Z,63.60
2022-10-01T05:50:10.293Z,63.10
2022-10-01T05:52:36.859Z,63.70
2022-10-01T05:55:03.760Z,63.60
2022-10-01T05:57:31.116Z,63.70
2022-10-01T05:59:57.880Z,63.70
2022-10-01T06:02:24.579Z,63.00
2022-10-01T06:04:51.233Z,63.60
2022-10-01T06:07:17.833Z,63.60
2022-10-01T06:09:45.109Z,63.70
2022-10-01T06:12:12.391Z,63.60
2022-10-01T06:14:41.397Z,63.10
2022-10-01T06:17:07.960Z,63.60
2022-10-01T06:19:34.760Z,63.60
2022-10-01T06:22:01.338Z,64.40
2022-10-01T06:24:27.950Z,63.60
2022-10-01T06:26:54.554Z,63.60
2022-10-01T06:29:21.123Z,63.60
2022-10-01T06:31:47.770Z,63.60
2022-10-01T06:34:14.357Z,63.60
2022-10-01T06:36:40.973Z,63.60
2022-10-01T06:39:07.590Z,63.50
2022-10-01T06:41:34.582Z,63.60
2022-10-01T06:44:01.865Z,63.10
2022-10-01T06:46:28.818Z,63.60
2022-10-01T06:48:55.400Z,63.10
2022-10-01T06:51:41.957Z,63.60
2022-10-01T06:54:08.894Z,63.70
2022-10-01T06:56:36.393Z,63.50
2022-10-01T06:59:03.848Z,63.50
2022-10-01T07:01:32.701Z,63.60
2022-10-01T07:03:59.664Z,63.50
2022-10-01T07:06:26.365Z,63.60
2022-10-01T07:08:53.069Z,63.50
2022-10-01T07:11:19.928Z,63.50
2022-10-01T07:13:48.190Z,63.60
2022-10-01T07:16:17.789Z,63.50
2022-10-01T07:18:44.418Z,63.60
2022-10-01T07:21:10.993Z,63.60
2022-10-01T07:23:37.565Z,63.60
2022-10-01T07:26:05.865Z,63.50
2022-10-01T07:28:32.420Z,63.60
2022-10-01T07:31:00.761Z,64.20
2022-10-01T07:33:27.797Z,63.60
2022-10-01T07:35:54.706Z,63.60
2022-10-01T07:38:21.520Z,63.60
2022-10-01T07:40:52.613Z,63.50
2022-10-01T07:43:19.204Z,63.50
2022-10-01T07:45:49.994Z,64.20
2022-10-01T07:48:16.815Z,63.50
2022-10-01T07:50:45.178Z,63.50
2022-10-01T07:53:12.606Z,63.30
2022-10-01T07:55:39.470Z,63.40
2022-10-01T07:58:06.208Z,63.40
2022-10-01T08:00:34.214Z,63.50
2022-10-01T08:03:01.349Z,63.50
2022-10-01T08:05:33.465Z,63.50
2022-10-01T08:08:09.369Z,63.60
2022-10-01T08:10:38.016Z,63.50
2022-10-01T08:13:14.232Z,63.60
2022-10-01T08:15:45.988Z,63.00
2022-10-01T08:18:13.236Z,63.60
2022-10-01T08:20:40.027Z,63.60
2022-10-01T08:23:13.824Z,63.80
2022-10-01T08:25:41.556Z,63.70
2022-10-01T08:28:09.344Z,63.90
2022-10-01T08:30:37.668Z,63.80
2022-10-01T08:33:04.265Z,63.80
2022-10-01T08:35:31.101Z,63.90
2022-10-01T08:38:04.977Z,63.80
2022-10-01T08:40:38.073Z,63.90
2022-10-01T08:43:07.329Z,63.90
2022-10-01T08:45:41.744Z,64.00
2022-10-01T08:48:16.452Z,64.00
2022-10-01T08:50:53.479Z,63.90
2022-10-01T08:53:45.178Z,66.80
2022-10-01T08:56:27.767Z,67.00
2022-10-01T08:59:00.109Z,68.10
2022-10-01T09:01:27.315Z,66.50
2022-10-01T09:03:54.092Z,71.90
2022-10-01T09:06:25.808Z,63.20
2022-10-01T09:09:01.173Z,71.70
2022-10-01T09:11:45.446Z,68.70
2022-10-01T09:14:30.470Z,69.10
2022-10-01T09:17:11.202Z,70.20
2022-10-01T09:19:54.251Z,70.00
2022-10-01T09:22:41.625Z,63.30
2022-10-01T09:25:13.289Z,63.80
2022-10-01T09:27:40.213Z,64.00
2022-10-01T09:30:24.719Z,63.90
2022-10-01T09:33:04.684Z,64.00
2022-10-01T09:35:46.973Z,64.30
2022-10-01T09:38:35.560Z,64.30
2022-10-01T09:41:02.255Z,64.80
2022-10-01T09:43:31.557Z,64.40
2022-10-01T09:45:58.726Z,64.60
2022-10-01T09:48:52.189Z,64.60
2022-10-01T09:51:33.353Z,68.00
2022-10-01T09:54:39.217Z,70.00
2022-10-01T09:57:15.995Z,67.70
2022-10-01T10:00:07.442Z,68.50
2022-10-01T10:02:49.369Z,64.90
2022-10-01T10:05:29.198Z,66.60
2022-10-01T10:07:59.957Z,74.20
2022-10-01T10:10:30.543Z,63.80
2022-10-01T10:13:17.273Z,69.70
2022-10-01T10:15:51.582Z,75.20
2022-10-01T10:18:29.834Z,76.20
2022-10-01T10:20:57.399Z,74.40
2022-10-01T10:23:31.296Z,67.80
2022-10-01T10:26:00.753Z,63.80
2022-10-01T10:28:29.093Z,72.60
2022-10-01T10:30:57.331Z,73.00
2022-10-01T10:33:26.227Z,69.00
2022-10-01T10:36:04.707Z,63.80
2022-10-01T10:38:34.911Z,64.80
2022-10-01T10:41:03.654Z,63.80
2022-10-01T10:43:36.916Z,69.50
2022-10-01T10:46:03.795Z,68.50
2022-10-01T10:48:38.397Z,68.90
2022-10-01T10:51:06.454Z,70.40
2022-10-01T10:53:44.826Z,69.60
2022-10-01T10:56:22.762Z,71.50
2022-10-01T10:58:51.314Z,70.10
2022-10-01T11:01:26.672Z,64.90
2022-10-01T11:04:00.033Z,63.90
2022-10-01T11:06:27.109Z,71.80
2022-10-01T11:09:04.728Z,64.00
2022-10-01T11:11:59.981Z,73.20
2022-10-01T11:14:52.158Z,66.30
2022-10-01T11:17:49.401Z,64.10
2022-10-01T11:20:50.090Z,75.00
2022-10-01T11:23:37.617Z,70.30
2022-10-01T11:26:24.194Z,64.50
2022-10-01T11:28:59.631Z,75.30
2022-10-01T11:31:41.662Z,70.50
2022-10-01T11:34:19.786Z,64.80
2022-10-01T11:36:53.247Z,64.80
2022-10-01T11:39:26.618Z,73.80
2022-10-01T11:41:59.185Z,64.90
2022-10-01T11:44:58.567Z,72.80
2022-10-01T11:47:43.701Z,73.00
2022-10-01T11:50:16.446Z,71.20
2022-10-01T11:52:52.544Z,72.80
2022-10-01T11:56:01.194Z,73.00
2022-10-01T11:58:52.411Z,74.70
2022-10-01T12:01:27.834Z,72.80
2022-10-01T12:03:54.388Z,70.90
2022-10-01T12:06:34.290Z,65.10
2022-10-01T12:09:20.432Z,65.10
2022-10-01T12:12:04.177Z,73.80
2022-10-01T12:14:47.203Z,72.60
2022-10-01T12:17:22.231Z,71.00
2022-10-01T12:19:51.326Z,71.40
2022-10-01T12:22:28.259Z,72.00
2022-10-01T12:27:21.961Z,71.10
2022-10-01T12:30:20.873Z,67.90
2022-10-01T12:35:36.902Z,72.00
2022-10-01T12:38:13.796Z,65.70
2022-10-01T12:41:12.774Z,67.80
2022-10-01T12:43:51.024Z,64.80
2022-10-01T12:46:33.276Z,65.40
2022-10-01T12:49:40.104Z,65.60
2022-10-01T12:52:20.497Z,65.70
2022-10-01T12:55:09.739Z,65.60
2022-10-01T12:58:03.027Z,65.50
2022-10-01T13:00:43.536Z,65.50
2022-10-01T13:03:37.288Z,65.20
2022-10-01T13:06:22.890Z,65.60
2022-10-01T13:09:37.595Z,64.90
2022-10-01T13:12:13.070Z,65.50
2022-10-01T13:14:44.237Z,65.40
2022-10-01T13:17:30.403Z,65.30
2022-10-01T13:20:18.064Z,65.30
2022-10-01T13:23:05.342Z,65.20
2022-10-01T13:25:52.182Z,65.60
2022-10-01T13:28:27.320Z,65.50
2022-10-01T13:31:00.397Z,66.30
2022-10-01T13:33:31.949Z,65.50
2022-10-01T13:36:03.597Z,65.70
2022-10-01T13:38:39.134Z,65.80
2022-10-01T13:41:17.432Z,65.70
2022-10-01T13:43:58.984Z,65.10
2022-10-01T13:46:30.966Z,65.70
2022-10-01T13:49:07.025Z,70.40
2022-10-01T13:51:39.140Z,72.00
2022-10-01T13:54:18.489Z,71.20
2022-10-01T13:56:45.377Z,65.10
2022-10-01T13:59:31.513Z,73.90
2022-10-01T14:01:58.239Z,73.10
2022-10-01T14:04:31.197Z,73.10
2022-10-01T14:07:22.103Z,68.60
2022-10-01T14:09:59.152Z,73.20
2022-10-01T14:12:52.897Z,72.90
2022-10-01T14:15:40.323Z,72.30
2022-10-01T14:18:16.408Z,65.80
2022-10-01T14:21:03.345Z,66.40
2022-10-01T14:23:53.415Z,73.40
2022-10-01T14:26:38.289Z,71.70
2022-10-01T14:29:05.687Z,71.30
2022-10-01T14:32:02.954Z,65.90
2022-10-01T14:34:46.154Z,72.10
2022-10-01T14:37:17.475Z,71.70
2022-10-01T14:39:44.498Z,71.70
2022-10-01T14:42:17.041Z,65.80
2022-10-01T14:44:46.960Z,73.40
2022-10-01T14:47:22.961Z,71.90
2022-10-01T14:49:50.714Z,71.40
2022-10-01T14:52:22.011Z,70.90
2022-10-01T14:55:01.673Z,72.60
2022-10-01T14:57:35.313Z,72.20
2022-10-01T15:00:11.306Z,69.40
2022-10-01T15:02:49.738Z,67.80
2022-10-01T15:05:24.240Z,66.50
2022-10-01T15:07:50.967Z,66.50
2022-10-01T15:10:20.331Z,67.60
2022-10-01T15:12:51.015Z,65.70
2022-10-01T15:15:21.805Z,66.40
2022-10-01T15:17:49.653Z,66.50
2022-10-01T15:20:17.158Z,66.50
2022-10-01T15:22:46.370Z,66.50
2022-10-01T15:25:20.811Z,67.20
2022-10-01T15:27:49.194Z,66.50
2022-10-01T15:30:18.215Z,66.60
2022-10-01T15:32:47.997Z,66.60
2022-10-01T15:35:19.381Z,66.50
2022-10-01T15:37:50.272Z,66.50
2022-10-01T15:40:31.221Z,66.50
2022-10-01T15:43:22.590Z,65.90
2022-10-01T15:46:25.077Z,66.40
2022-10-01T15:49:10.334Z,66.50
2022-10-01T15:51:37.787Z,66.60
2022-10-01T15:54:08.902Z,66.50
2022-10-01T15:56:35.979Z,66.50
2022-10-01T15:59:12.416Z,66.50
2022-10-01T16:01:40.479Z,66.50
2022-10-01T16:04:13.225Z,66.70
2022-10-01T16:06:45.738Z,67.30
2022-10-01T16:09:30.718Z,67.20
2022-10-01T16:12:05.253Z,67.20
2022-10-01T16:14:47.167Z,67.40
2022-10-01T16:17:19.693Z,68.10
2022-10-01T16:19:52.145Z,67.80
2022-10-01T16:22:25.165Z,67.80
2022-10-01T16:24:57.477Z,67.70
2022-10-01T16:27:45.440Z,64.20
2022-10-01T16:30:21.696Z,67.10
2022-10-01T16:32:48.676Z,67.10
2022-10-01T16:35:29.945Z,66.70
2022-10-01T16:37:58.042Z,67.00
2022-10-01T16:40:33.392Z,67.40
2022-10-01T16:43:00.748Z,67.20
2022-10-01T16:45:33.974Z,68.90
2022-10-01T16:48:00.826Z,69.10
2022-10-01T16:50:27.394Z,68.40
2022-10-01T16:52:55.676Z,68.80
2022-10-01T16:55:25.441Z,68.80
2022-10-01T16:57:55.962Z,69.10
2022-10-01T17:00:26.487Z,68.80
2022-10-01T17:02:56.795Z,66.70
2022-10-01T17:05:26.936Z,66.80
2022-10-01T17:07:54.529Z,66.80
2022-10-01T17:10:22.897Z,66.50
2022-10-01T17:12:50.180Z,66.60
2022-10-01T17:15:26.819Z,66.80
2022-10-01T17:17:55.098Z,67.00
2022-10-01T17:20:23.163Z,66.70
2022-10-01T17:22:50.229Z,66.50
2022-10-01T17:25:19.418Z,66.60
2022-10-01T17:27:46.729Z,66.50
2022-10-01T17:30:13.692Z,66.40
2022-10-01T17:32:42.771Z,66.30
2022-10-01T17:35:14.538Z,66.50
2022-10-01T17:37:42.229Z,66.20
2022-10-01T17:40:09.998Z,66.30
2022-10-01T17:42:36.605Z,66.20
2022-10-01T17:45:06.028Z,66.40
2022-10-01T17:47:33.462Z,66.60
2022-10-01T17:50:00.169Z,66.30
2022-10-01T17:52:26.949Z,66.40
2022-10-01T17:54:53.524Z,66.20
2022-10-01T17:57:20.855Z,66.30
2022-10-01T17:59:47.416Z,66.00
2022-10-01T18:02:39.807Z,66.00
2022-10-01T18:05:01.943Z,66.10
2022-10-01T18:07:28.533Z,66.20
2022-10-01T18:09:55.166Z,66.60
2022-10-01T18:12:21.762Z,66.60
2022-10-01T18:14:49.675Z,66.60
2022-10-01T18:17:16.445Z,66.90
2022-10-01T18:19:58.376Z,66.80
2022-10-01T18:22:25.056Z,67.00
2022-10-01T18:24:51.706Z,67.10
2022-10-01T18:29:45.366Z,67.10
2022-10-01T18:32:17.204Z,66.90
2022-10-01T18:35:01.504Z,67.00
2022-10-01T18:37:39.829Z,67.00
2022-10-01T18:40:12.475Z,66.70
2022-10-01T18:43:02.365Z,66.80
2022-10-01T18:45:56.854Z,66.90
2022-10-01T18:48:57.087Z,66.80
2022-10-01T18:51:52.289Z,66.90
2022-10-01T18:54:43.855Z,66.90
2022-10-01T18:57:50.058Z,67.00
2022-10-01T19:00:21.821Z,67.00
2022-10-01T19:03:03.724Z,67.00
2022-10-01T19:05:59.414Z,67.50
2022-10-01T19:08:35.036Z,67.20
2022-10-01T19:11:44.480Z,67.30
2022-10-01T19:14:25.976Z,67.50
2022-10-01T19:17:23.438Z,67.30
2022-10-01T19:19:53.041Z,67.40
2022-10-01T19:22:32.002Z,67.20
2022-10-01T19:25:25.038Z,67.40
2022-10-01T19:27:54.792Z,67.50
2022-10-01T19:30:21.699Z,67.50
2022-10-01T19:33:01.770Z,67.20
2022-10-01T19:35:34.252Z,67.20
2022-10-01T19:38:25.004Z,67.40
2022-10-01T19:41:16.112Z,67.20
2022-10-01T19:44:01.668Z,67.20
2022-10-01T19:46:40.730Z,66.70
2022-10-01T19:51:43.634Z,68.90
2022-10-01T19:54:18.030Z,77.10
2022-10-01T19:56:52.903Z,78.50
2022-10-01T19:59:20.361Z,66.50
2022-10-01T20:02:03.868Z,80.80
2022-10-01T20:05:02.730Z,80.40
2022-10-01T20:07:51.073Z,81.90
2022-10-01T20:10:23.621Z,81.50
2022-10-01T20:13:18.394Z,66.60
2022-10-01T20:16:09.622Z,66.50
2022-10-01T20:18:41.465Z,80.20
2022-10-01T20:21:29.755Z,76.70
2022-10-01T20:24:07.923Z,74.20
2022-10-01T20:26:50.571Z,73.60
2022-10-01T20:29:27.076Z,75.70
2022-10-01T20:32:18.996Z,69.80
2022-10-01T20:39:49.211Z,67.60
2022-10-01T20:42:24.006Z,69.80
2022-10-01T20:44:52.503Z,76.60
2022-10-01T20:47:46.566Z,76.90
2022-10-01T20:50:38.402Z,77.80
2022-10-01T20:53:16.439Z,76.00
2022-10-01T20:55:56.525Z,69.60
2022-10-01T20:58:31.238Z,66.10
2022-10-01T21:01:16.717Z,66.10
2022-10-01T21:03:55.660Z,66.10
2022-10-01T21:06:54.884Z,72.20
2022-10-01T21:09:43.970Z,71.80
2022-10-01T21:12:16.648Z,69.20
2022-10-01T21:14:49.394Z,69.00
2022-10-01T21:17:31.114Z,70.50
2022-10-01T21:20:28.386Z,71.30
2022-10-01T21:23:26.388Z,66.10
2022-10-01T21:26:09.266Z,70.20
2022-10-01T21:31:32.416Z,70.80
2022-10-01T21:34:02.886Z,69.90
2022-10-01T21:37:04.917Z,68.70
2022-10-01T21:39:33.040Z,68.50
2022-10-01T21:42:08.630Z,69.40
2022-10-01T21:45:02.635Z,68.20
2022-10-01T21:47:38.409Z,67.50
2022-10-01T21:50:20.529Z,68.40
2022-10-01T21:53:07.336Z,68.30
2022-10-01T21:55:58.797Z,68.20
2022-10-01T21:58:52.813Z,67.90
2022-10-01T22:01:37.734Z,68.60
2022-10-01T22:04:21.723Z,69.50
2022-10-01T22:06:57.564Z,69.20
2022-10-01T22:09:57.239Z,68.60
2022-10-01T22:12:28.608Z,66.70
2022-10-01T22:14:57.325Z,70.00
2022-10-01T22:17:29.200Z,66.40
2022-10-01T22:19:58.798Z,69.40
2022-10-01T22:22:31.014Z,69.60
2022-10-01T22:25:00.080Z,70.20
2022-10-01T22:27:43.700Z,69.60
2022-10-01T22:30:14.180Z,68.40
2022-10-01T22:32:46.765Z,68.50
2022-10-01T22:35:23.634Z,68.50
2022-10-01T22:38:05.081Z,68.00
2022-10-01T22:40:42.034Z,70.00
2022-10-01T22:43:13.559Z,67.60
2022-10-01T22:46:24.592Z,71.50
2022-10-01T22:49:23.420Z,69.20
2022-10-01T22:52:20.638Z,70.80
2022-10-01T22:55:07.756Z,66.40
2022-10-01T22:58:06.157Z,66.40
2022-10-01T23:00:42.975Z,66.50
2022-10-01T23:04:05.389Z,66.40
2022-10-01T23:09:39.560Z,74.70
2022-10-01T23:12:19.108Z,67.00
2022-10-01T23:15:09.546Z,72.00
2022-10-01T23:18:19.409Z,74.10
2022-10-01T23:21:08.196Z,68.30
2022-10-01T23:23:34.873Z,73.40
2022-10-01T23:26:22.317Z,73.10
2022-10-01T23:29:22.352Z,71.70
2022-10-01T23:32:06.536Z,67.10
2022-10-01T23:34:51.723Z,66.60
2022-10-01T23:37:23.495Z,66.50
2022-10-01T23:39:56.965Z,72.80
2022-10-01T23:42:53.874Z,66.20
2022-10-01T23:45:30.424Z,70.00
2022-10-01T23:48:27.265Z,68.10
2022-10-01T23:51:11.101Z,67.40
2022-10-01T23:53:47.942Z,67.20
2022-10-01T23:56:41.401Z,66.90
2022-10-01T23:59:35.365Z,67.00
